Avoca, IA (51521)

08:24 CST le 08 décembre 2016 (GMT -0600)
Shelby, IA | | Change Station

Alt. 1329 ft 41.53 °N, 95.46 °W | Updated 0 second ago

Partiellement nuageux
Partiellement nuageux
10.0 ° F
Paraît -10 ° F
N
23.0
Vent Variable Vent de ONO
Gusts 26.0 mph

Aujourd'hui
Haut(e) -- | Bas -- ° F
--% Risque de précip.
Hier
Haut(e) -- | Bas -- ° F
Precip. -- pouce
Pression 30.54 pouce
Visibilité 10.0 Miles terrestres
Nuages Ciel dégagé
Refroidissement éolien -10 ° F
Point de rosée 6 ° F
Humidité 82%
Précipitations 0.00 pouce
Profondeur de la couche neigeuse Non disponible.
7:35 AM 4:51 PM
Lune gibbeuse croissante, 64% visible
METAR KHNR 081355Z AUTO 31015G21KT 10SM CLR M12/M15 A3054 RMK AO2
Pression 30.54 pouce
Visibilité 10.0 Miles terrestres
Nuages Ciel dégagé
Refroidissement éolien -10 ° F
Point de rosée 6 ° F
Humidité 82%
Précipitations 0.00 pouce
Profondeur de la couche neigeuse Non disponible.
7:35 AM 4:51 PM
Lune gibbeuse croissante, 64% visible
METAR KHNR 081355Z AUTO 31015G21KT 10SM CLR M12/M15 A3054 RMK AO2

10-Day Weather Forecast

Almanac

Astronomie

Dec. 08, 2016 Lever Coucher
Temps réel
Crépuscule civil
Crépuscule nautique
Crépuscule astronomique
Lune
Durée de lumière visible
Longueur du jour
Tomorrow will be .
, % of the Moon is Illuminated

Extrêmes aujourd'hui

State Highs State Lows

Community

WunderPhotos

Upload Photos

1,956,268 Photos téléchargées !

WunderBlog® & News

Nearby

Qualité de l'air

  Qualité de l'air Indice de la qualité de l'air Polluant
Not available.

Épaisseur de neige

Station Depth Altitude

Activité sismique

Ville Distance Mag. Time & Date
Minimum magnitude displayed is 2.5.

Températures des eaux côtières

Lieu Température

Stations

Stations météo à proximité

Emplacement de la station Température Refroidissement éolien Point de rosée Humidité Vent Precip. Alt. Mise à jour Type
                   

Watches & Warnings

There are currently no watches in effect.